createdAt,value
2022-12-13T00:00:54.372Z,17.40
2022-12-13T00:03:40.814Z,17.90
2022-12-13T00:06:28.693Z,18.00
2022-12-13T00:09:16.469Z,16.70
2022-12-13T00:12:03.201Z,16.80
2022-12-13T00:14:49.909Z,15.90
2022-12-13T00:17:36.667Z,15.60
2022-12-13T00:20:23.309Z,16.10
2022-12-13T00:23:09.902Z,15.00
2022-12-13T00:25:56.227Z,14.80
2022-12-13T00:28:43.222Z,15.30
2022-12-13T00:34:40.767Z,14.70
2022-12-13T00:37:27.147Z,15.30
2022-12-13T00:40:13.692Z,15.60
2022-12-13T00:43:00.179Z,14.50
2022-12-13T00:45:46.812Z,14.40
2022-12-13T00:48:33.537Z,14.80
2022-12-13T00:51:21.087Z,14.40
2022-12-13T00:54:07.844Z,14.10
2022-12-13T00:56:54.133Z,16.70
2022-12-13T00:59:40.696Z,13.40
2022-12-13T01:02:27.203Z,13.20
2022-12-13T01:05:14.888Z,14.00
2022-12-13T01:08:06.052Z,13.80
2022-12-13T01:10:52.533Z,14.60
2022-12-13T01:13:40.433Z,12.50
2022-12-13T01:16:27.250Z,14.00
2022-12-13T01:19:13.850Z,13.30
2022-12-13T01:22:03.307Z,12.30
2022-12-13T01:24:49.982Z,11.70
2022-12-13T01:27:36.213Z,13.80
2022-12-13T01:30:24.636Z,12.80
2022-12-13T01:33:14.313Z,12.30
2022-12-13T01:36:03.270Z,12.60
2022-12-13T01:38:49.614Z,12.50
2022-12-13T01:41:36.942Z,12.40
2022-12-13T01:44:58.174Z,12.10
2022-12-13T01:47:48.879Z,12.30
2022-12-13T01:50:39.611Z,11.90
2022-12-13T01:53:31.563Z,12.90
2022-12-13T01:56:23.508Z,12.50
2022-12-13T01:59:12.563Z,12.40
2022-12-13T02:02:01.092Z,13.00
2022-12-13T02:05:06.942Z,13.50
2022-12-13T02:07:54.241Z,12.30
2022-12-13T02:10:43.135Z,13.00
2022-12-13T02:13:29.549Z,13.10
2022-12-13T02:17:00.726Z,14.00
2022-12-13T02:20:02.262Z,13.20
2022-12-13T02:23:00.755Z,13.80
2022-12-13T02:25:52.960Z,13.10
2022-12-13T02:29:08.694Z,13.60
2022-12-13T02:32:03.952Z,14.10
2022-12-13T02:35:03.477Z,14.20
2022-12-13T02:38:08.916Z,13.00
2022-12-13T02:41:04.981Z,13.50
2022-12-13T02:44:02.072Z,12.90
2022-12-13T02:47:22.152Z,12.80
2022-12-13T02:50:11.072Z,12.80
2022-12-13T02:52:58.569Z,12.00
2022-12-13T02:55:44.991Z,12.20
2022-12-13T02:58:35.922Z,11.90
2022-12-13T03:02:00.747Z,11.30
2022-12-13T03:05:23.656Z,11.40
2022-12-13T03:08:20.703Z,12.00
2022-12-13T03:11:09.762Z,12.60
2022-12-13T03:14:06.710Z,12.20
2022-12-13T03:16:55.905Z,12.40
2022-12-13T03:19:42.968Z,12.70
2022-12-13T03:22:29.311Z,12.40
2022-12-13T03:25:31.212Z,13.20
2022-12-13T03:28:19.406Z,14.10
2022-12-13T03:31:06.666Z,13.50
2022-12-13T03:33:53.186Z,14.20
2022-12-13T03:36:39.843Z,13.20
2022-12-13T03:39:26.746Z,14.00
2022-12-13T03:42:13.428Z,14.10
2022-12-13T03:44:59.924Z,13.70
2022-12-13T03:47:46.688Z,15.20
2022-12-13T03:50:34.839Z,14.90
2022-12-13T03:53:33.791Z,14.80
2022-12-13T03:56:20.553Z,15.50
2022-12-13T03:59:07.576Z,15.60
2022-12-13T04:01:54.026Z,15.90
2022-12-13T04:04:40.745Z,16.80
2022-12-13T04:07:27.375Z,16.40
2022-12-13T04:10:25.877Z,16.20
2022-12-13T04:13:31.640Z,16.80
2022-12-13T04:16:18.281Z,17.30
2022-12-13T04:19:04.943Z,18.00
2022-12-13T04:21:54.301Z,18.00
2022-12-13T04:24:41.195Z,19.20
2022-12-13T04:27:27.816Z,19.50
2022-12-13T04:30:14.835Z,19.90
2022-12-13T04:33:01.568Z,18.90
2022-12-13T04:35:48.532Z,18.60
2022-12-13T04:38:35.020Z,19.50
2022-12-13T04:41:22.412Z,18.40
2022-12-13T04:44:29.090Z,19.00
2022-12-13T04:47:17.296Z,19.70
2022-12-13T04:50:04.449Z,19.80
2022-12-13T04:52:51.299Z,19.70
2022-12-13T04:55:37.804Z,20.70
2022-12-13T04:58:24.257Z,22.00
2022-12-13T05:01:11.833Z,21.60
2022-12-13T05:03:58.173Z,20.70
2022-12-13T05:06:44.835Z,21.40
2022-12-13T05:09:31.514Z,20.10
2022-12-13T05:12:22.399Z,20.20
2022-12-13T05:15:10.138Z,20.30
2022-12-13T05:18:01.808Z,19.70
2022-12-13T05:20:56.599Z,18.20
2022-12-13T05:23:43.274Z,18.40
2022-12-13T05:26:30.115Z,19.80
2022-12-13T05:29:16.619Z,19.00
2022-12-13T05:32:04.262Z,20.00
2022-12-13T05:34:51.439Z,19.30
2022-12-13T05:37:37.897Z,18.30
2022-12-13T05:40:26.909Z,21.00
2022-12-13T05:43:22.109Z,19.50
2022-12-13T05:46:08.686Z,19.80
2022-12-13T05:48:55.287Z,20.10
2022-12-13T05:51:41.454Z,19.50
2022-12-13T05:54:27.647Z,18.90
2022-12-13T05:57:14.434Z,19.70
2022-12-13T06:00:00.976Z,18.10
2022-12-13T06:02:47.283Z,18.20
2022-12-13T06:05:34.142Z,17.70
2022-12-13T06:08:23.961Z,18.10
2022-12-13T06:11:12.491Z,17.70
2022-12-13T06:14:22.285Z,18.10
2022-12-13T06:17:09.676Z,17.20
2022-12-13T06:19:56.410Z,18.70
2022-12-13T06:22:43.208Z,17.90
2022-12-13T06:25:30.477Z,17.00
2022-12-13T06:28:18.487Z,16.40
2022-12-13T06:31:06.045Z,14.90
2022-12-13T06:33:52.992Z,14.60
2022-12-13T06:36:39.903Z,14.50
2022-12-13T06:39:26.745Z,14.40
2022-12-13T06:42:23.823Z,14.00
2022-12-13T06:45:12.421Z,13.90
2022-12-13T06:47:59.671Z,14.30
2022-12-13T06:50:46.291Z,14.50
2022-12-13T06:53:35.372Z,15.00
2022-12-13T06:56:23.063Z,14.40
2022-12-13T06:59:11.018Z,14.70
2022-12-13T07:02:03.767Z,14.60
2022-12-13T07:04:52.046Z,14.10
2022-12-13T07:07:39.208Z,14.40
2022-12-13T07:10:25.918Z,14.30
2022-12-13T07:13:12.727Z,13.00
2022-12-13T07:16:01.085Z,13.10
2022-12-13T07:18:48.418Z,12.30
2022-12-13T07:21:36.569Z,12.40
2022-12-13T07:24:23.590Z,12.20
2022-12-13T07:27:10.277Z,12.90
2022-12-13T07:29:58.111Z,13.10
2022-12-13T07:32:44.724Z,12.40
2022-12-13T07:35:37.036Z,12.40
2022-12-13T07:38:24.576Z,12.30
2022-12-13T07:41:11.771Z,12.40
2022-12-13T07:43:58.952Z,11.80
2022-12-13T07:46:45.854Z,12.70
2022-12-13T07:49:32.679Z,12.10
2022-12-13T07:52:19.744Z,12.30
2022-12-13T07:55:07.493Z,12.10
2022-12-13T07:57:54.584Z,12.30
2022-12-13T08:00:46.094Z,12.30
2022-12-13T08:03:33.303Z,12.30
2022-12-13T08:06:20.026Z,11.90
2022-12-13T08:09:06.948Z,12.60
2022-12-13T08:11:53.520Z,13.00
2022-12-13T08:14:39.975Z,13.10
2022-12-13T08:17:26.558Z,12.90
2022-12-13T08:20:13.584Z,12.50
2022-12-13T08:23:10.751Z,13.50
2022-12-13T08:25:57.874Z,14.10
2022-12-13T08:28:46.320Z,12.70
2022-12-13T08:31:34.030Z,14.10
2022-12-13T08:34:20.601Z,14.20
2022-12-13T08:37:07.441Z,14.30
2022-12-13T08:39:53.981Z,14.20
2022-12-13T08:42:40.551Z,14.40
2022-12-13T08:45:27.283Z,14.00
2022-12-13T08:48:13.704Z,14.30
2022-12-13T08:51:06.666Z,14.00
2022-12-13T08:53:53.207Z,14.10
2022-12-13T08:56:58.044Z,14.50
2022-12-13T08:59:44.628Z,15.00
2022-12-13T09:02:31.249Z,14.90
2022-12-13T09:05:32.997Z,13.60
2022-12-13T09:08:24.535Z,13.80
2022-12-13T09:11:22.451Z,14.30
2022-12-13T09:14:23.587Z,14.00
2022-12-13T09:17:14.534Z,14.30
2022-12-13T09:20:28.694Z,14.10
2022-12-13T09:23:23.853Z,13.80
2022-12-13T09:26:14.951Z,13.00
2022-12-13T09:29:11.062Z,13.20
2022-12-13T09:31:58.313Z,13.30
2022-12-13T09:34:45.700Z,13.30
2022-12-13T09:37:32.647Z,12.70
2022-12-13T09:40:25.780Z,13.20
2022-12-13T09:43:31.245Z,12.90
2022-12-13T09:46:27.539Z,12.80
2022-12-13T09:49:22.960Z,12.70
2022-12-13T09:52:21.790Z,12.80
2022-12-13T09:55:21.714Z,12.30
2022-12-13T09:58:30.375Z,12.90
2022-12-13T10:01:23.432Z,12.60
2022-12-13T10:04:15.517Z,13.00
2022-12-13T10:07:05.494Z,12.50
2022-12-13T10:10:01.373Z,14.10
2022-12-13T10:12:55.826Z,12.80
2022-12-13T10:15:46.688Z,12.90
2022-12-13T10:18:36.202Z,13.30
2022-12-13T10:21:29.009Z,12.40
2022-12-13T10:24:32.736Z,13.40
2022-12-13T10:27:35.511Z,13.30
2022-12-13T10:30:28.448Z,13.10
2022-12-13T10:33:24.386Z,13.90
2022-12-13T10:36:30.231Z,13.80
2022-12-13T10:39:19.180Z,14.50
2022-12-13T10:42:13.936Z,14.10
2022-12-13T10:45:15.489Z,14.60
2022-12-13T10:48:04.418Z,14.20
2022-12-13T10:51:01.193Z,13.90
2022-12-13T10:53:49.580Z,13.90
2022-12-13T10:56:42.536Z,14.10
2022-12-13T10:59:40.211Z,13.90
2022-12-13T11:02:36.356Z,14.60
2022-12-13T11:05:36.191Z,14.70
2022-12-13T11:08:27.837Z,14.70
2022-12-13T11:11:18.635Z,15.50
2022-12-13T11:14:05.406Z,12.70
2022-12-13T11:16:57.625Z,13.50
2022-12-13T11:19:47.503Z,14.10
2022-12-13T11:22:37.673Z,14.30
2022-12-13T11:25:27.048Z,14.00
2022-12-13T11:28:32.046Z,14.00
2022-12-13T11:31:40.471Z,13.50
2022-12-13T11:34:32.911Z,13.30
2022-12-13T11:37:57.170Z,14.20
2022-12-13T11:40:49.675Z,14.30
2022-12-13T11:43:38.561Z,13.80
2022-12-13T11:46:46.349Z,13.70
2022-12-13T11:49:41.411Z,13.50
2022-12-13T11:52:39.243Z,13.30
2022-12-13T11:55:39.209Z,14.50
2022-12-13T11:58:53.909Z,14.40
2022-12-13T12:01:39.465Z,14.10
2022-12-13T12:04:35.329Z,14.00
2022-12-13T12:07:33.803Z,14.30
2022-12-13T12:10:33.667Z,14.20
2022-12-13T12:13:26.612Z,12.60
2022-12-13T12:16:31.962Z,13.60
2022-12-13T12:19:22.454Z,13.30
2022-12-13T12:22:17.730Z,12.80
2022-12-13T12:25:29.131Z,12.60
2022-12-13T12:28:44.663Z,11.80
2022-12-13T12:32:16.187Z,11.70
2022-12-13T12:35:41.798Z,11.50
2022-12-13T12:38:50.966Z,12.60
2022-12-13T12:41:52.977Z,12.20
2022-12-13T12:44:51.423Z,13.10
2022-12-13T12:55:36.311Z,12.80
2022-12-13T12:58:46.339Z,11.40
2022-12-13T13:01:52.201Z,12.00
2022-12-13T13:04:45.836Z,11.50
2022-12-13T13:07:40.581Z,12.00
2022-12-13T13:10:27.706Z,11.30
2022-12-13T13:13:51.739Z,11.20
2022-12-13T13:16:40.255Z,11.90
2022-12-13T13:19:31.232Z,12.10
2022-12-13T13:22:44.242Z,11.70
2022-12-13T13:25:43.928Z,14.40
2022-12-13T13:28:40.423Z,13.50
2022-12-13T13:31:27.761Z,14.70
2022-12-13T13:34:23.491Z,13.70
2022-12-13T13:37:23.381Z,13.50
2022-12-13T13:40:30.171Z,13.00
2022-12-13T13:43:32.508Z,14.20
2022-12-13T13:46:19.741Z,14.20
2022-12-13T13:49:11.698Z,15.20
2022-12-13T13:52:30.216Z,15.20
2022-12-13T13:55:41.787Z,16.40
2022-12-13T13:58:56.491Z,17.80
2022-12-13T14:02:19.274Z,15.90
2022-12-13T14:05:43.624Z,15.50
2022-12-13T14:09:04.580Z,15.60
2022-12-13T14:12:28.342Z,14.60
2022-12-13T14:15:49.145Z,15.70
2022-12-13T14:19:04.948Z,16.40
2022-12-13T14:22:06.402Z,16.00
2022-12-13T14:25:23.693Z,16.00
2022-12-13T14:28:22.062Z,16.70
2022-12-13T14:31:22.093Z,18.60
2022-12-13T14:34:19.971Z,18.90
2022-12-13T14:37:30.533Z,16.60
2022-12-13T14:40:54.683Z,16.50
2022-12-13T14:43:45.606Z,16.50
2022-12-13T14:46:35.085Z,16.50
2022-12-13T14:49:23.975Z,16.80
2022-12-13T14:52:39.627Z,17.40
2022-12-13T14:55:30.376Z,16.90
2022-12-13T14:58:20.980Z,17.80
2022-12-13T15:01:31.076Z,18.10
2022-12-13T15:04:30.729Z,17.90
2022-12-13T15:07:27.137Z,17.70
2022-12-13T15:10:37.960Z,18.20
2022-12-13T15:13:24.987Z,18.10
2022-12-13T15:16:27.308Z,19.60
2022-12-13T15:19:31.189Z,18.60
2022-12-13T15:22:19.347Z,18.50
2022-12-13T15:25:06.316Z,18.70
2022-12-13T15:27:55.059Z,18.60
2022-12-13T15:30:41.841Z,19.20
2022-12-13T15:33:35.267Z,19.80
2022-12-13T15:36:27.340Z,20.00
2022-12-13T15:39:18.269Z,20.20
2022-12-13T15:42:06.462Z,19.30
2022-12-13T15:44:59.450Z,21.10
2022-12-13T15:47:46.923Z,20.10
2022-12-13T15:50:45.466Z,21.50
2022-12-13T15:53:37.721Z,21.40
2022-12-13T15:56:29.893Z,22.70
2022-12-13T15:59:32.638Z,21.00
2022-12-13T16:02:24.832Z,21.60
2022-12-13T16:05:31.490Z,21.30
2022-12-13T16:08:30.462Z,21.80
2022-12-13T16:11:30.723Z,21.20
2022-12-13T16:14:49.674Z,22.00
2022-12-13T16:17:36.340Z,22.60
2022-12-13T16:20:23.779Z,23.40
2022-12-13T16:23:10.445Z,21.10
2022-12-13T16:26:13.977Z,21.40
2022-12-13T16:29:00.634Z,20.90
2022-12-13T16:31:47.872Z,22.60
2022-12-13T16:34:34.706Z,21.40
2022-12-13T16:37:27.533Z,23.20
2022-12-13T16:40:28.612Z,22.00
2022-12-13T16:43:18.351Z,19.60
2022-12-13T16:47:13.327Z,21.40
2022-12-13T16:49:25.168Z,20.10
2022-12-13T16:52:11.613Z,19.40
2022-12-13T16:55:00.628Z,21.70
2022-12-13T16:58:17.442Z,19.00
2022-12-13T17:01:12.431Z,19.30
2022-12-13T17:03:58.898Z,21.00
2022-12-13T17:06:46.233Z,19.70
2022-12-13T17:09:35.054Z,20.00
2022-12-13T17:12:21.451Z,20.70
2022-12-13T17:15:09.468Z,19.70
2022-12-13T17:17:56.335Z,22.90
2022-12-13T17:20:42.604Z,21.60
2022-12-13T17:23:30.300Z,20.30
2022-12-13T17:26:17.338Z,20.50
2022-12-13T17:29:05.322Z,18.30
2022-12-13T17:31:53.341Z,20.30
2022-12-13T17:34:40.386Z,20.40
2022-12-13T17:37:26.484Z,21.30
2022-12-13T17:40:13.014Z,22.40
2022-12-13T17:42:59.471Z,21.50
2022-12-13T17:45:46.034Z,25.70
2022-12-13T17:48:39.783Z,23.10
2022-12-13T17:51:27.600Z,24.50
2022-12-13T17:54:14.193Z,24.30
2022-12-13T17:57:02.636Z,22.40
2022-12-13T17:59:49.504Z,27.20
2022-12-13T18:02:39.423Z,24.80
2022-12-13T18:05:26.285Z,26.70
2022-12-13T18:08:12.735Z,24.10
2022-12-13T18:11:30.764Z,25.20
2022-12-13T18:14:08.278Z,23.90
2022-12-13T18:16:54.587Z,24.20
2022-12-13T18:19:41.006Z,24.20
2022-12-13T18:24:39.617Z,25.90
2022-12-13T18:27:24.887Z,26.10
2022-12-13T18:30:31.924Z,26.40
2022-12-13T18:34:00.432Z,25.30
2022-12-13T18:58:32.541Z,22.50
2022-12-13T19:01:19.763Z,22.80
2022-12-13T19:07:21.400Z,20.90
2022-12-13T19:12:03.166Z,22.90
2022-12-13T19:14:54.859Z,24.10
2022-12-13T19:17:43.919Z,22.80
2022-12-13T19:20:38.357Z,24.80
2022-12-13T19:23:24.211Z,24.60
2022-12-13T19:26:13.375Z,24.20
2022-12-13T19:28:58.950Z,25.20
2022-12-13T19:31:52.861Z,24.90
2022-12-13T19:34:38.571Z,26.80
2022-12-13T19:37:44.447Z,26.10
2022-12-13T19:40:29.717Z,27.90
2022-12-13T19:43:52.937Z,26.20
2022-12-13T19:46:42.164Z,28.70
2022-12-13T19:49:27.554Z,26.20
2022-12-13T19:52:13.078Z,26.50
2022-12-13T19:54:58.708Z,26.60
2022-12-13T19:57:43.790Z,27.20
2022-12-13T20:00:29.375Z,26.70
2022-12-13T20:03:17.452Z,26.60
2022-12-13T20:06:04.531Z,27.90
2022-12-13T20:08:50.637Z,28.10
2022-12-13T20:11:37.447Z,26.70
2022-12-13T20:14:22.793Z,27.40
2022-12-13T20:17:07.897Z,29.50
2022-12-13T20:19:53.154Z,26.30
2022-12-13T20:22:48.509Z,26.40
2022-12-13T20:26:06.261Z,24.40
2022-12-13T20:29:25.265Z,24.20
2022-12-13T20:32:15.116Z,26.20
2022-12-13T20:35:01.819Z,27.60
2022-12-13T20:37:53.082Z,27.60
2022-12-13T20:40:39.567Z,31.20
2022-12-13T20:43:26.714Z,31.10
2022-12-13T20:46:16.817Z,32.00
2022-12-13T20:49:14.190Z,31.70
2022-12-13T20:52:57.170Z,32.40
2022-12-13T20:57:23.196Z,32.20
2022-12-13T21:03:15.799Z,33.10
2022-12-13T21:06:02.316Z,33.20
2022-12-13T21:08:51.459Z,33.50
2022-12-13T21:11:46.920Z,32.80
2022-12-13T21:14:34.367Z,34.90
2022-12-13T21:17:21.160Z,34.60
2022-12-13T21:20:08.213Z,35.20
2022-12-13T21:22:55.065Z,40.10
2022-12-13T21:25:41.695Z,41.10
2022-12-13T21:32:55.487Z,36.80
2022-12-13T21:35:41.784Z,41.10
2022-12-13T21:38:29.544Z,44.50
2022-12-13T21:41:18.959Z,43.80
2022-12-13T21:44:05.924Z,41.50
2022-12-13T21:48:13.917Z,41.60
2022-12-13T21:51:01.236Z,45.40
2022-12-13T21:53:52.090Z,42.40
2022-12-13T21:56:57.030Z,43.30
2022-12-13T21:59:43.434Z,42.60
2022-12-13T22:02:29.973Z,44.70
2022-12-13T22:05:16.929Z,44.10
2022-12-13T22:08:03.670Z,44.10
2022-12-13T22:12:41.556Z,39.20
2022-12-13T22:15:28.053Z,43.80
2022-12-13T22:18:35.091Z,45.20
2022-12-13T22:21:23.547Z,43.30
2022-12-13T22:24:13.695Z,44.80
2022-12-13T22:27:26.322Z,43.70
2022-12-13T22:30:13.117Z,44.80
2022-12-13T22:32:59.858Z,45.30
2022-12-13T22:35:46.288Z,44.70
2022-12-13T22:38:33.123Z,47.80
2022-12-13T22:41:19.659Z,47.00
2022-12-13T22:44:05.945Z,47.80
2022-12-13T22:46:52.636Z,45.80
2022-12-13T22:51:58.600Z,44.10
2022-12-13T22:54:45.107Z,46.90
2022-12-13T22:57:56.797Z,50.10
2022-12-13T23:00:43.573Z,53.00
2022-12-13T23:03:30.299Z,51.50
2022-12-13T23:08:54.429Z,51.90
2022-12-13T23:12:00.427Z,56.80
2022-12-13T23:14:47.183Z,58.00
2022-12-13T23:17:33.781Z,56.20
2022-12-13T23:20:20.383Z,54.30
2022-12-13T23:23:07.066Z,53.60
2022-12-13T23:25:53.593Z,53.10
2022-12-13T23:28:40.655Z,54.20
2022-12-13T23:31:30.541Z,53.50
2022-12-13T23:34:19.109Z,57.00
2022-12-13T23:37:05.678Z,55.20
2022-12-13T23:39:52.489Z,54.90
2022-12-13T23:42:39.177Z,55.80
2022-12-13T23:45:26.791Z,58.10
2022-12-13T23:48:13.294Z,56.80
2022-12-13T23:51:00.860Z,54.80
2022-12-13T23:53:47.545Z,57.10
2022-12-13T23:56:34.166Z,63.80
2022-12-13T23:59:22.951Z,77.70
